McHenry, Mississippi
Current Conditions -  °F | °C
As of 4:53 AM on Thursday 23 Oct 2014 (Local Time) from KGPT Reporting Station
Clear Clear  
Wind Chill: 11°   Ceiling: Unl
Heat Index: 11°   Visibility: 10mi
Dew Point:   Wind: 3mph
Humidity: 77%   Direction: 360°N
Pressure: 30.07"   Gusts: NA
Location:  30.71°N, 89.14°W
Report Text: KGPT 230953Z AUTO 36003KT 10SM CLR 11/07 A3007 RMK AO2 SLP181 T01060067
Loading
Personal Weather Stations






























Interactive Weather Map
Tropical Storm Tracking
New forecast layout! Learn more

10-Day Weather Forecast

Advertisements
Track Severe Weather on mobile